Flight Track Log - Related Links

Times and Time Zones

All times are in EDT time to prevent confusion due to time zone crossing. See the SKW5564 flight status page for this flight to view local times or setup timezone preferences in your user account.

Time Position Orientation Groundspeed Altitude Reporting Facility
EDT Latitude Longitude Course Direction KTS MPH feet Rate Location/Type
Thu 10:47:38 AM 37.6667 -122.3167 50° Northeast 185 213 2,900  Level Northern TRACON
Thu 10:48:38 AM 37.7167 -122.2833 28° Northeast 220 253 4,700 1,912 Climbing Northern TRACON
Thu 10:51:00 AM 37.7480 -122.1749 46° Northeast  Level FlightAware
Thu 10:51:02 AM 37.8422 -122.1422 42° Northeast 276 318 9,400  Level Oakland Center
Thu 10:52:00 AM 37.8348 -122.0562 50° Northeast  Level FlightAware
Thu 10:52:03 AM 37.8961 -122.0619 50° Northeast 297 342 11,200  Level Oakland Center
Thu 10:53:04 AM 37.9575 -121.9697 50° Northeast 341 392 12,700 1,869 Climbing Oakland Center
Thu 10:54:05 AM 38.0211 -121.8744 50° Northeast 352 405 15,000 2,262 Climbing Oakland Center
Thu 10:55:06 AM 38.0825 -121.7806 50° Northeast 346 398 17,300 2,066 Climbing Oakland Center
Thu 10:56:07 AM 38.1464 -121.6822 50° Northeast 359 413 19,200 1,869 Climbing Oakland Center
Thu 10:57:08 AM 38.2139 -121.5797 50° Northeast 375 432 21,100 1,869 Climbing Oakland Center
Thu 10:58:09 AM 38.2806 -121.4783 50° Northeast 381 438 23,000 1,770 Climbing Oakland Center
Thu 10:59:10 AM 38.3486 -121.3719 51° Northeast 387 445 24,700 1,574 Climbing Oakland Center
Thu 11:00:11 AM 38.4267 -121.2375 53° Northeast 397 457 26,200 1,279 Climbing Oakland Center
Thu 11:01:12 AM 38.4728 -121.1039 66° East 422 486 27,300 1,082 Climbing Oakland Center
Thu 11:02:13 AM 38.5214 -120.9653 66° East 431 496 28,400 1,082 Climbing Oakland Center
Thu 11:03:14 AM 38.5722 -120.8225 65° Northeast 440 506 29,500 1,082 Climbing Oakland Center
Thu 11:04:15 AM 38.6231 -120.6761 66° East 449 517 30,600 1,082 Climbing Oakland Center
Thu 11:05:16 AM 38.6811 -120.5314 63° Northeast 455 524 31,700 1,082 Climbing Oakland Center
Thu 11:06:17 AM 38.7561 -120.3953 55° Northeast 467 537 32,800 1,082 Climbing Oakland Center
Thu 11:07:18 AM 38.8275 -120.2553 57° Northeast 468 539 33,900 1,082 Climbing Oakland Center
Thu 11:08:19 AM 38.9014 -120.1169 56° Northeast 470 541 35,000 1,131 Climbing Oakland Center
Thu 11:09:20 AM 38.9825 -119.9744 54° Northeast 463 533 36,200 984 Climbing Oakland Center
Thu 11:10:21 AM 39.0483 -119.8333 59° Northeast 462 532 37,000 590 Climbing Oakland Center
Thu 11:11:22 AM 39.0942 -119.6769 69° East 466 536 37,400 689 Climbing Oakland Center
Thu 11:12:23 AM 39.1419 -119.5222 68° East 465 535 38,400 787 Climbing Oakland Center
Thu 11:13:24 AM 39.1867 -119.3708 69° East 454 522 39,000 295 Climbing Oakland Center
Thu 11:14:25 AM 39.2450 -119.1833 68° East 466 536 39,000  Level Oakland Center
Thu 11:15:26 AM 39.2883 -119.0397 69° East 471 542 39,000  Level Oakland Center
Thu 11:16:27 AM 39.3364 -118.8800 69° East 475 547 39,000  Level Oakland Center
Thu 11:17:28 AM 39.3844 -118.7194 69° East 478 550 39,000  Level Oakland Center
Thu 11:18:29 AM 39.4317 -118.5583 69° East 479 551 39,000  Level Oakland Center
Thu 11:19:31 AM 39.4786 -118.4011 69° East 477 549 39,000  Level Oakland Center
Thu 11:20:32 AM 39.5358 -118.2078 69° East 479 551 39,000  Level Oakland Center
Thu 11:21:33 AM 39.5825 -118.0464 69° East 480 552 39,000  Level Oakland Center
Thu 11:22:34 AM 39.6297 -117.8833 69° East 481 554 39,000  Level Oakland Center
Thu 11:23:35 AM 39.6758 -117.7222 70° East 479 551 39,000  Level Oakland Center
Thu 11:24:36 AM 39.7186 -117.5731 70° East 476 548 39,000  Level Oakland Center
Thu 11:25:38 AM 39.7692 -117.3933 70° East 475 547 39,000  Level Oakland Center
Thu 11:26:39 AM 39.8125 -117.2400 70° East 473 544 39,000  Level Oakland Center
Thu 11:27:40 AM 39.8553 -117.0858 70° East 474 545 39,000  Level Oakland Center
Thu 11:28:41 AM 39.9047 -116.9086 70° East 471 542 39,000  Level Oakland Center
Thu 11:29:43 AM 39.9411 -116.7533 73° East 469 540 39,000 -98 Level Oakland Center
Thu 11:30:44 AM 39.9806 -116.5725 74° East 468 539 38,800 -541 Descending Oakland Center
Thu 11:31:45 AM 40.0139 -116.4147 75° East 473 544 37,900 -885 Descending Oakland Center
Thu 11:32:46 AM 40.0553 -116.2267 74° East 483 556 37,000 -365 Descending Oakland Center
Thu 11:34:13 AM 40.1089 -115.9842 74° East 482 555 37,000  Level Salt Center
Thu 11:35:15 AM 40.1425 -115.8275 74° East 473 544 37,000  Level Salt Center
Thu 11:36:17 AM 40.1803 -115.6472 75° East 464 534 37,000  Level Salt Center
Thu 11:37:19 AM 40.2125 -115.4936 75° East 461 531 37,000  Level Salt Center
Thu 11:38:21 AM 40.2442 -115.3367 75° East 465 535 37,000  Level Salt Center
Thu 11:39:23 AM 40.2817 -115.1519 75° East 470 541 37,000  Level Salt Center
Thu 11:40:25 AM 40.3142 -114.9933 75° East 472 543 37,000  Level Salt Center
Thu 11:41:27 AM 40.3517 -114.8056 75° East 476 548 37,000  Level Salt Center
Thu 11:42:29 AM 40.3869 -114.6350 75° East 478 550 37,000  Level Salt Center
Thu 11:43:31 AM 40.4194 -114.4669 76° East 478 550 37,000  Level Salt Center
Thu 11:44:33 AM 40.4531 -114.2975 75° East 481 554 37,000 -339 Level Salt Center
Thu 11:45:35 AM 40.4856 -114.1286 76° East 479 551 36,300 -2,032 Descending Salt Center
Thu 11:46:37 AM 40.5250 -113.9250 76° East 480 552 32,800 -3,097 Descending Salt Center
Thu 11:47:39 AM 40.5561 -113.7578 76° East 474 545 29,900 -2,806 Descending Salt Center
Thu 11:48:41 AM 40.5872 -113.5922 76° East 470 541 27,000 -2,806 Descending Salt Center
Thu 11:49:43 AM 40.6178 -113.4300 76° East 461 531 24,100 -2,710 Descending Salt Center
Thu 11:50:45 AM 40.6494 -113.2714 75° East 452 520 21,400 -2,565 Descending Salt Center
Thu 11:51:47 AM 40.6764 -113.1183 77° East 433 498 18,800 -2,146 Descending Salt Center
Thu 11:52:48 AM 40.7083 -112.9458 76° East 400 460 17,000 -956 Descending Salt Center
Thu 11:53:40 AM 40.7261 -112.8461 77° East 343 395 17,000  Level Salt Center
Thu 11:54:35 AM 40.7242 -112.7339 91° East 334 384 17,000 -295 Level Salt Center
Thu 11:55:42 AM 40.7228 -112.6017 91° East 336 387 16,400 -1,078 Descending Salt Center
Thu 11:56:43 AM 40.7200 -112.4753 92° East 329 379 14,700 -1,670 Descending Salt Center
Thu 11:57:37 AM 40.7172 -112.3717 92° East 320 368 13,200 -1,672 Descending Salt Center
Thu 11:58:45 AM 40.7122 -112.2461 93° East 307 353 11,300 -1,082 Descending Salt Center
Thu 11:59:39 AM 40.7250 -112.1456 80° East 301 346 11,000 -157 Descending Salt Center
Thu 12:00:40 PM 40.7850 -112.1000 30° Northeast 249 287 11,000 -98 Level Salt Center
Thu 12:01:41 PM 40.8528 -112.1053 357° North 243 280 10,800 -783 Descending Salt Center
Thu 12:02:35 PM 40.9125 -112.1136 354° North 230 265 9,500 -1,241 Descending Salt Center
Thu 12:03:08 PM 40.9375 -112.1142 359° North 227 261 9,000 -909 Descending Salt Center

Login

Don't have an account? Register now (free) for customized features, flight alerts, and more!